sensor_id;sensor_type;location;lat;lon;timestamp;temperature;humidity
13835;DHT22;6988;52.614;13.500;2023-05-16T00:01:03;13.60;99.90
13835;DHT22;6988;52.614;13.500;2023-05-16T00:05:55;13.60;99.90
13835;DHT22;6988;52.614;13.500;2023-05-16T00:10:48;13.60;99.90
13835;DHT22;6988;52.614;13.500;2023-05-16T00:15:42;13.60;99.90
13835;DHT22;6988;52.614;13.500;2023-05-16T00:20:36;13.60;99.90
13835;DHT22;6988;52.614;13.500;2023-05-16T00:25:28;13.60;99.90
13835;DHT22;6988;52.614;13.500;2023-05-16T00:30:20;13.60;99.90
13835;DHT22;6988;52.614;13.500;2023-05-16T00:35:12;13.50;99.90
13835;DHT22;6988;52.614;13.500;2023-05-16T00:40:06;13.50;99.90
13835;DHT22;6988;52.614;13.500;2023-05-16T00:44:59;13.50;99.90
13835;DHT22;6988;52.614;13.500;2023-05-16T00:49:52;13.50;99.90
13835;DHT22;6988;52.614;13.500;2023-05-16T00:54:45;13.50;99.90
13835;DHT22;6988;52.614;13.500;2023-05-16T00:59:43;13.40;99.90
13835;DHT22;6988;52.614;13.500;2023-05-16T01:04:36;13.40;99.90
13835;DHT22;6988;52.614;13.500;2023-05-16T01:09:29;13.40;99.90
13835;DHT22;6988;52.614;13.500;2023-05-16T01:14:24;13.30;99.90
13835;DHT22;6988;52.614;13.500;2023-05-16T01:19:43;13.20;99.90
13835;DHT22;6988;52.614;13.500;2023-05-16T01:24:55;13.20;99.90
13835;DHT22;6988;52.614;13.500;2023-05-16T01:29:57;13.20;99.90
13835;DHT22;6988;52.614;13.500;2023-05-16T01:34:49;13.10;99.90
13835;DHT22;6988;52.614;13.500;2023-05-16T01:39:44;13.10;99.90
13835;DHT22;6988;52.614;13.500;2023-05-16T01:44:43;13.00;99.90
13835;DHT22;6988;52.614;13.500;2023-05-16T01:49:44;13.00;99.90
13835;DHT22;6988;52.614;13.500;2023-05-16T01:54:44;12.90;99.90
13835;DHT22;6988;52.614;13.500;2023-05-16T01:59:38;12.80;99.90
13835;DHT22;6988;52.614;13.500;2023-05-16T02:11:06;12.70;99.90
13835;DHT22;6988;52.614;13.500;2023-05-16T02:15:58;12.70;99.90
13835;DHT22;6988;52.614;13.500;2023-05-16T02:20:50;12.70;99.90
13835;DHT22;6988;52.614;13.500;2023-05-16T02:25:42;12.60;99.90
13835;DHT22;6988;52.614;13.500;2023-05-16T02:30:36;12.50;99.90
13835;DHT22;6988;52.614;13.500;2023-05-16T02:35:28;12.50;99.90
13835;DHT22;6988;52.614;13.500;2023-05-16T02:40:19;12.40;99.90
13835;DHT22;6988;52.614;13.500;2023-05-16T02:45:11;12.30;99.90
13835;DHT22;6988;52.614;13.500;2023-05-16T02:50:05;12.20;99.90
13835;DHT22;6988;52.614;13.500;2023-05-16T02:54:58;12.10;99.90
13835;DHT22;6988;52.614;13.500;2023-05-16T02:59:50;12.10;99.90
13835;DHT22;6988;52.614;13.500;2023-05-16T03:04:42;12.10;99.90
13835;DHT22;6988;52.614;13.500;2023-05-16T03:09:35;11.90;99.90
13835;DHT22;6988;52.614;13.500;2023-05-16T03:14:30;11.90;99.90
13835;DHT22;6988;52.614;13.500;2023-05-16T03:25:54;11.80;99.90
13835;DHT22;6988;52.614;13.500;2023-05-16T03:30:47;11.70;99.90
13835;DHT22;6988;52.614;13.500;2023-05-16T03:35:39;11.60;99.90
13835;DHT22;6988;52.614;13.500;2023-05-16T03:40:31;11.70;99.90
13835;DHT22;6988;52.614;13.500;2023-05-16T03:45:24;11.70;99.90
13835;DHT22;6988;52.614;13.500;2023-05-16T03:50:16;11.70;99.90
13835;DHT22;6988;52.614;13.500;2023-05-16T03:55:08;11.70;99.90
13835;DHT22;6988;52.614;13.500;2023-05-16T04:00:01;11.70;99.90
13835;DHT22;6988;52.614;13.500;2023-05-16T04:05:03;11.70;99.90
13835;DHT22;6988;52.614;13.500;2023-05-16T04:09:57;11.70;99.90
13835;DHT22;6988;52.614;13.500;2023-05-16T04:14:49;11.60;99.90
13835;DHT22;6988;52.614;13.500;2023-05-16T04:19:41;11.60;99.90
13835;DHT22;6988;52.614;13.500;2023-05-16T04:24:34;11.60;99.90
13835;DHT22;6988;52.614;13.500;2023-05-16T04:29:26;11.60;99.90
13835;DHT22;6988;52.614;13.500;2023-05-16T04:34:17;11.60;99.90
13835;DHT22;6988;52.614;13.500;2023-05-16T04:39:09;11.50;99.90
13835;DHT22;6988;52.614;13.500;2023-05-16T04:44:02;11.50;99.90
13835;DHT22;6988;52.614;13.500;2023-05-16T04:48:55;11.50;99.90
13835;DHT22;6988;52.614;13.500;2023-05-16T04:53:48;11.50;99.90
13835;DHT22;6988;52.614;13.500;2023-05-16T04:58:40;11.40;99.90
13835;DHT22;6988;52.614;13.500;2023-05-16T05:03:33;11.40;99.90
13835;DHT22;6988;52.614;13.500;2023-05-16T05:08:25;11.40;99.90
13835;DHT22;6988;52.614;13.500;2023-05-16T05:13:17;11.40;99.90
13835;DHT22;6988;52.614;13.500;2023-05-16T05:18:09;11.40;99.90
13835;DHT22;6988;52.614;13.500;2023-05-16T05:23:02;11.30;99.90
13835;DHT22;6988;52.614;13.500;2023-05-16T05:27:54;11.30;99.90
13835;DHT22;6988;52.614;13.500;2023-05-16T05:32:46;11.20;99.90
13835;DHT22;6988;52.614;13.500;2023-05-16T05:37:38;11.10;99.90
13835;DHT22;6988;52.614;13.500;2023-05-16T05:42:31;11.10;99.90
13835;DHT22;6988;52.614;13.500;2023-05-16T05:47:23;11.10;99.90
13835;DHT22;6988;52.614;13.500;2023-05-16T05:52:15;11.10;99.90
13835;DHT22;6988;52.614;13.500;2023-05-16T06:02:00;11.10;99.90
13835;DHT22;6988;52.614;13.500;2023-05-16T06:06:52;11.10;99.90
13835;DHT22;6988;52.614;13.500;2023-05-16T06:11:44;11.20;99.90
13835;DHT22;6988;52.614;13.500;2023-05-16T06:16:37;11.20;99.90
13835;DHT22;6988;52.614;13.500;2023-05-16T06:21:31;11.20;99.90
13835;DHT22;6988;52.614;13.500;2023-05-16T06:26:23;11.30;99.90
13835;DHT22;6988;52.614;13.500;2023-05-16T06:31:15;11.40;99.90
13835;DHT22;6988;52.614;13.500;2023-05-16T06:36:07;11.40;99.90
13835;DHT22;6988;52.614;13.500;2023-05-16T06:41:00;11.50;99.90
13835;DHT22;6988;52.614;13.500;2023-05-16T06:45:52;11.60;99.90
13835;DHT22;6988;52.614;13.500;2023-05-16T06:50:46;11.70;99.90
13835;DHT22;6988;52.614;13.500;2023-05-16T06:55:39;11.70;99.90
13835;DHT22;6988;52.614;13.500;2023-05-16T07:00:32;11.80;99.90
13835;DHT22;6988;52.614;13.500;2023-05-16T07:05:23;11.80;99.90
13835;DHT22;6988;52.614;13.500;2023-05-16T07:10:15;11.70;99.90
13835;DHT22;6988;52.614;13.500;2023-05-16T07:15:08;11.70;99.90
13835;DHT22;6988;52.614;13.500;2023-05-16T07:20:02;11.70;99.90
13835;DHT22;6988;52.614;13.500;2023-05-16T07:24:55;11.70;99.90
13835;DHT22;6988;52.614;13.500;2023-05-16T07:29:50;11.70;99.90
13835;DHT22;6988;52.614;13.500;2023-05-16T07:34:41;11.80;99.90
13835;DHT22;6988;52.614;13.500;2023-05-16T07:39:35;11.90;99.90
13835;DHT22;6988;52.614;13.500;2023-05-16T07:44:26;12.00;99.90
13835;DHT22;6988;52.614;13.500;2023-05-16T07:49:18;12.10;99.90
13835;DHT22;6988;52.614;13.500;2023-05-16T07:54:10;12.20;99.90
13835;DHT22;6988;52.614;13.500;2023-05-16T07:59:03;12.30;99.90
13835;DHT22;6988;52.614;13.500;2023-05-16T08:03:56;12.50;99.90
13835;DHT22;6988;52.614;13.500;2023-05-16T08:08:48;12.60;99.90
13835;DHT22;6988;52.614;13.500;2023-05-16T08:13:39;12.60;99.90
13835;DHT22;6988;52.614;13.500;2023-05-16T08:18:32;12.60;99.90
13835;DHT22;6988;52.614;13.500;2023-05-16T08:23:24;12.60;99.90
13835;DHT22;6988;52.614;13.500;2023-05-16T08:28:16;12.60;99.90
13835;DHT22;6988;52.614;13.500;2023-05-16T08:33:08;12.70;99.90
13835;DHT22;6988;52.614;13.500;2023-05-16T08:38:01;12.60;99.90
13835;DHT22;6988;52.614;13.500;2023-05-16T08:42:53;12.60;99.90
13835;DHT22;6988;52.614;13.500;2023-05-16T08:47:47;12.60;99.90
13835;DHT22;6988;52.614;13.500;2023-05-16T08:52:44;12.70;99.90
13835;DHT22;6988;52.614;13.500;2023-05-16T08:57:39;12.70;99.90
13835;DHT22;6988;52.614;13.500;2023-05-16T09:02:32;12.70;99.90
13835;DHT22;6988;52.614;13.500;2023-05-16T09:07:23;12.60;99.90
13835;DHT22;6988;52.614;13.500;2023-05-16T09:12:15;12.60;99.90
13835;DHT22;6988;52.614;13.500;2023-05-16T09:17:09;12.60;99.90
13835;DHT22;6988;52.614;13.500;2023-05-16T09:22:02;12.60;99.90
13835;DHT22;6988;52.614;13.500;2023-05-16T09:26:54;12.80;99.90
13835;DHT22;6988;52.614;13.500;2023-05-16T09:31:48;12.80;99.90
13835;DHT22;6988;52.614;13.500;2023-05-16T09:36:42;12.90;99.90
13835;DHT22;6988;52.614;13.500;2023-05-16T09:41:35;12.90;99.90
13835;DHT22;6988;52.614;13.500;2023-05-16T09:46:26;12.90;99.90
13835;DHT22;6988;52.614;13.500;2023-05-16T09:51:21;12.90;99.90
13835;DHT22;6988;52.614;13.500;2023-05-16T09:56:15;12.90;99.90
13835;DHT22;6988;52.614;13.500;2023-05-16T10:01:07;12.90;99.90
13835;DHT22;6988;52.614;13.500;2023-05-16T10:06:00;12.90;99.90
13835;DHT22;6988;52.614;13.500;2023-05-16T10:10:55;13.00;99.90
13835;DHT22;6988;52.614;13.500;2023-05-16T10:15:50;13.00;99.90
13835;DHT22;6988;52.614;13.500;2023-05-16T10:20:47;13.10;99.90
13835;DHT22;6988;52.614;13.500;2023-05-16T10:25:43;13.20;99.90
13835;DHT22;6988;52.614;13.500;2023-05-16T10:30:39;13.20;99.90
13835;DHT22;6988;52.614;13.500;2023-05-16T10:35:34;13.20;99.90
13835;DHT22;6988;52.614;13.500;2023-05-16T10:40:27;13.20;99.90
13835;DHT22;6988;52.614;13.500;2023-05-16T10:45:22;13.30;99.90
13835;DHT22;6988;52.614;13.500;2023-05-16T10:50:29;13.30;99.90
13835;DHT22;6988;52.614;13.500;2023-05-16T10:55:29;13.20;99.90
13835;DHT22;6988;52.614;13.500;2023-05-16T11:00:21;13.10;99.90
13835;DHT22;6988;52.614;13.500;2023-05-16T11:05:17;13.00;99.90
13835;DHT22;6988;52.614;13.500;2023-05-16T11:10:15;13.10;99.90
13835;DHT22;6988;52.614;13.500;2023-05-16T11:15:20;13.20;99.90
13835;DHT22;6988;52.614;13.500;2023-05-16T11:20:25;13.40;99.90
13835;DHT22;6988;52.614;13.500;2023-05-16T11:25:34;13.50;99.90
13835;DHT22;6988;52.614;13.500;2023-05-16T11:30:30;13.80;99.90
13835;DHT22;6988;52.614;13.500;2023-05-16T11:35:22;14.00;99.90
13835;DHT22;6988;52.614;13.500;2023-05-16T11:40:14;14.10;99.90
13835;DHT22;6988;52.614;13.500;2023-05-16T11:45:10;14.00;99.90
13835;DHT22;6988;52.614;13.500;2023-05-16T11:50:05;13.90;99.90
13835;DHT22;6988;52.614;13.500;2023-05-16T11:54:59;13.90;99.90
13835;DHT22;6988;52.614;13.500;2023-05-16T11:59:54;13.80;99.90
13835;DHT22;6988;52.614;13.500;2023-05-16T12:04:48;13.90;99.90
13835;DHT22;6988;52.614;13.500;2023-05-16T12:09:41;14.00;99.90
13835;DHT22;6988;52.614;13.500;2023-05-16T12:14:33;14.40;99.90
13835;DHT22;6988;52.614;13.500;2023-05-16T12:19:25;15.60;99.90
13835;DHT22;6988;52.614;13.500;2023-05-16T12:24:19;16.30;99.90
13835;DHT22;6988;52.614;13.500;2023-05-16T12:29:12;16.60;99.90
13835;DHT22;6988;52.614;13.500;2023-05-16T12:34:04;16.50;99.90
13835;DHT22;6988;52.614;13.500;2023-05-16T12:39:05;16.40;99.90
13835;DHT22;6988;52.614;13.500;2023-05-16T12:44:10;16.30;99.90
13835;DHT22;6988;52.614;13.500;2023-05-16T12:49:03;16.20;99.90
13835;DHT22;6988;52.614;13.500;2023-05-16T12:53:56;16.20;99.90
13835;DHT22;6988;52.614;13.500;2023-05-16T12:58:49;16.20;99.90
13835;DHT22;6988;52.614;13.500;2023-05-16T13:03:43;16.10;99.90
13835;DHT22;6988;52.614;13.500;2023-05-16T13:08:35;16.40;99.90
13835;DHT22;6988;52.614;13.500;2023-05-16T13:13:28;17.50;99.90
13835;DHT22;6988;52.614;13.500;2023-05-16T13:18:20;17.50;99.90
13835;DHT22;6988;52.614;13.500;2023-05-16T13:23:14;17.50;99.90
13835;DHT22;6988;52.614;13.500;2023-05-16T13:28:06;17.30;99.90
13835;DHT22;6988;52.614;13.500;2023-05-16T13:32:58;17.10;99.90
13835;DHT22;6988;52.614;13.500;2023-05-16T13:37:50;17.00;99.90
13835;DHT22;6988;52.614;13.500;2023-05-16T13:42:43;17.90;99.90
13835;DHT22;6988;52.614;13.500;2023-05-16T13:47:36;17.90;99.90
13835;DHT22;6988;52.614;13.500;2023-05-16T13:52:28;17.60;99.90
13835;DHT22;6988;52.614;13.500;2023-05-16T13:57:20;17.70;99.90
13835;DHT22;6988;52.614;13.500;2023-05-16T14:02:14;17.50;99.90
13835;DHT22;6988;52.614;13.500;2023-05-16T14:07:06;17.40;99.90
13835;DHT22;6988;52.614;13.500;2023-05-16T14:11:58;17.30;99.90
13835;DHT22;6988;52.614;13.500;2023-05-16T14:16:52;17.70;99.90
13835;DHT22;6988;52.614;13.500;2023-05-16T14:21:45;18.10;99.90
13835;DHT22;6988;52.614;13.500;2023-05-16T14:26:37;18.00;99.90
13835;DHT22;6988;52.614;13.500;2023-05-16T14:31:31;17.90;99.90
13835;DHT22;6988;52.614;13.500;2023-05-16T14:36:25;17.90;99.90
13835;DHT22;6988;52.614;13.500;2023-05-16T14:41:18;17.90;99.90
13835;DHT22;6988;52.614;13.500;2023-05-16T14:46:10;18.40;99.50
13835;DHT22;6988;52.614;13.500;2023-05-16T14:51:02;18.90;99.90
13835;DHT22;6988;52.614;13.500;2023-05-16T14:55:55;19.30;97.10
13835;DHT22;6988;52.614;13.500;2023-05-16T15:00:49;19.20;98.30
13835;DHT22;6988;52.614;13.500;2023-05-16T15:05:41;18.70;99.40
13835;DHT22;6988;52.614;13.500;2023-05-16T15:10:33;18.40;99.10
13835;DHT22;6988;52.614;13.500;2023-05-16T15:15:25;18.50;98.60
13835;DHT22;6988;52.614;13.500;2023-05-16T15:20:19;18.80;97.60
13835;DHT22;6988;52.614;13.500;2023-05-16T15:25:13;18.90;97.60
13835;DHT22;6988;52.614;13.500;2023-05-16T15:30:07;19.00;97.30
13835;DHT22;6988;52.614;13.500;2023-05-16T15:35:00;19.20;94.30
13835;DHT22;6988;52.614;13.500;2023-05-16T15:39:53;19.10;92.30
13835;DHT22;6988;52.614;13.500;2023-05-16T15:44:46;19.10;93.30
13835;DHT22;6988;52.614;13.500;2023-05-16T15:49:38;19.00;94.00
13835;DHT22;6988;52.614;13.500;2023-05-16T15:54:30;19.20;93.70
13835;DHT22;6988;52.614;13.500;2023-05-16T15:59:23;19.00;91.00
13835;DHT22;6988;52.614;13.500;2023-05-16T16:04:16;18.70;91.50
13835;DHT22;6988;52.614;13.500;2023-05-16T16:09:08;18.20;92.50
13835;DHT22;6988;52.614;13.500;2023-05-16T16:14:01;17.90;93.20
13835;DHT22;6988;52.614;13.500;2023-05-16T16:18:54;17.80;92.90
13835;DHT22;6988;52.614;13.500;2023-05-16T16:23:46;17.40;92.80
13835;DHT22;6988;52.614;13.500;2023-05-16T16:28:38;17.20;93.80
13835;DHT22;6988;52.614;13.500;2023-05-16T16:33:30;17.10;93.50
13835;DHT22;6988;52.614;13.500;2023-05-16T16:38:24;17.20;94.00
13835;DHT22;6988;52.614;13.500;2023-05-16T16:43:16;16.90;93.60
13835;DHT22;6988;52.614;13.500;2023-05-16T16:48:08;16.90;94.30
13835;DHT22;6988;52.614;13.500;2023-05-16T16:53:01;16.90;94.80
13835;DHT22;6988;52.614;13.500;2023-05-16T16:57:55;16.90;95.60
13835;DHT22;6988;52.614;13.500;2023-05-16T17:02:47;16.80;94.10
13835;DHT22;6988;52.614;13.500;2023-05-16T17:07:39;16.80;92.40
13835;DHT22;6988;52.614;13.500;2023-05-16T17:12:31;16.70;92.40
13835;DHT22;6988;52.614;13.500;2023-05-16T17:17:24;16.70;92.20
13835;DHT22;6988;52.614;13.500;2023-05-16T17:22:17;16.40;92.00
13835;DHT22;6988;52.614;13.500;2023-05-16T17:27:10;16.30;92.60
13835;DHT22;6988;52.614;13.500;2023-05-16T17:32:03;16.30;93.50
13835;DHT22;6988;52.614;13.500;2023-05-16T17:36:57;16.10;93.90
13835;DHT22;6988;52.614;13.500;2023-05-16T17:41:49;15.90;93.90
13835;DHT22;6988;52.614;13.500;2023-05-16T17:46:43;15.60;95.00
13835;DHT22;6988;52.614;13.500;2023-05-16T17:51:44;15.40;94.80
13835;DHT22;6988;52.614;13.500;2023-05-16T17:56:39;15.30;95.70
13835;DHT22;6988;52.614;13.500;2023-05-16T18:01:32;15.10;97.50
13835;DHT22;6988;52.614;13.500;2023-05-16T18:06:24;14.90;98.60
13835;DHT22;6988;52.614;13.500;2023-05-16T18:11:16;14.80;98.90
13835;DHT22;6988;52.614;13.500;2023-05-16T18:16:10;14.70;99.60
13835;DHT22;6988;52.614;13.500;2023-05-16T18:21:02;14.50;99.90
13835;DHT22;6988;52.614;13.500;2023-05-16T18:25:55;14.30;99.90
13835;DHT22;6988;52.614;13.500;2023-05-16T18:30:48;14.20;99.90
13835;DHT22;6988;52.614;13.500;2023-05-16T18:35:41;14.00;99.90
13835;DHT22;6988;52.614;13.500;2023-05-16T18:40:33;14.00;99.90
13835;DHT22;6988;52.614;13.500;2023-05-16T18:45:26;13.80;99.90
13835;DHT22;6988;52.614;13.500;2023-05-16T18:50:19;13.70;99.90
13835;DHT22;6988;52.614;13.500;2023-05-16T18:55:12;13.50;99.90
13835;DHT22;6988;52.614;13.500;2023-05-16T19:05:08;13.20;99.90
13835;DHT22;6988;52.614;13.500;2023-05-16T19:10:00;13.10;99.90
13835;DHT22;6988;52.614;13.500;2023-05-16T19:14:55;12.90;99.90
13835;DHT22;6988;52.614;13.500;2023-05-16T19:19:47;12.70;99.90
13835;DHT22;6988;52.614;13.500;2023-05-16T19:24:39;12.60;99.90
13835;DHT22;6988;52.614;13.500;2023-05-16T19:29:31;12.50;99.90
13835;DHT22;6988;52.614;13.500;2023-05-16T19:34:25;12.30;99.90
13835;DHT22;6988;52.614;13.500;2023-05-16T19:39:17;12.20;99.90
13835;DHT22;6988;52.614;13.500;2023-05-16T19:44:09;12.00;99.90
13835;DHT22;6988;52.614;13.500;2023-05-16T19:49:01;12.00;99.90
13835;DHT22;6988;52.614;13.500;2023-05-16T19:53:54;11.90;99.90
13835;DHT22;6988;52.614;13.500;2023-05-16T19:58:46;11.80;99.90
13835;DHT22;6988;52.614;13.500;2023-05-16T20:03:38;11.70;99.90
13835;DHT22;6988;52.614;13.500;2023-05-16T20:08:30;11.50;99.90
13835;DHT22;6988;52.614;13.500;2023-05-16T20:13:24;11.50;99.90
13835;DHT22;6988;52.614;13.500;2023-05-16T20:18:16;11.40;99.90
13835;DHT22;6988;52.614;13.500;2023-05-16T20:23:08;11.30;99.90
13835;DHT22;6988;52.614;13.500;2023-05-16T20:28:02;11.20;99.90
13835;DHT22;6988;52.614;13.500;2023-05-16T20:32:55;11.10;99.90
13835;DHT22;6988;52.614;13.500;2023-05-16T20:37:47;11.10;99.90
13835;DHT22;6988;52.614;13.500;2023-05-16T20:42:39;11.00;99.90
13835;DHT22;6988;52.614;13.500;2023-05-16T20:47:31;10.90;99.90
13835;DHT22;6988;52.614;13.500;2023-05-16T20:52:25;10.80;99.90
13835;DHT22;6988;52.614;13.500;2023-05-16T20:57:17;10.80;99.90
13835;DHT22;6988;52.614;13.500;2023-05-16T21:02:09;10.60;99.90
13835;DHT22;6988;52.614;13.500;2023-05-16T21:07:02;10.50;99.90
13835;DHT22;6988;52.614;13.500;2023-05-16T21:11:56;10.40;99.90
13835;DHT22;6988;52.614;13.500;2023-05-16T21:16:48;10.30;99.90
13835;DHT22;6988;52.614;13.500;2023-05-16T21:21:41;10.20;99.90
13835;DHT22;6988;52.614;13.500;2023-05-16T21:26:33;10.20;99.90
13835;DHT22;6988;52.614;13.500;2023-05-16T21:31:26;10.10;99.90
13835;DHT22;6988;52.614;13.500;2023-05-16T21:36:18;10.00;99.90
13835;DHT22;6988;52.614;13.500;2023-05-16T21:41:11;9.90;99.90
13835;DHT22;6988;52.614;13.500;2023-05-16T22:04:19;9.40;99.90
13835;DHT22;6988;52.614;13.500;2023-05-16T22:09:11;9.30;99.90
13835;DHT22;6988;52.614;13.500;2023-05-16T22:14:03;9.20;99.90
13835;DHT22;6988;52.614;13.500;2023-05-16T22:18:54;9.10;99.90
13835;DHT22;6988;52.614;13.500;2023-05-16T22:23:48;9.00;99.90
13835;DHT22;6988;52.614;13.500;2023-05-16T22:28:40;9.00;99.90
13835;DHT22;6988;52.614;13.500;2023-05-16T22:33:32;8.90;99.90
13835;DHT22;6988;52.614;13.500;2023-05-16T22:38:23;8.90;99.90
13835;DHT22;6988;52.614;13.500;2023-05-16T22:43:17;8.80;99.90
13835;DHT22;6988;52.614;13.500;2023-05-16T22:48:09;8.80;99.90
13835;DHT22;6988;52.614;13.500;2023-05-16T22:53:01;8.70;99.90
13835;DHT22;6988;52.614;13.500;2023-05-16T22:57:52;8.70;99.90
13835;DHT22;6988;52.614;13.500;2023-05-16T23:02:48;8.70;99.90
13835;DHT22;6988;52.614;13.500;2023-05-16T23:07:40;8.60;99.90
13835;DHT22;6988;52.614;13.500;2023-05-16T23:12:32;8.50;99.90
13835;DHT22;6988;52.614;13.500;2023-05-16T23:17:24;8.60;99.90
13835;DHT22;6988;52.614;13.500;2023-05-16T23:22:17;8.50;99.90
13835;DHT22;6988;52.614;13.500;2023-05-16T23:27:09;8.40;99.90
13835;DHT22;6988;52.614;13.500;2023-05-16T23:32:01;8.30;99.90
13835;DHT22;6988;52.614;13.500;2023-05-16T23:36:52;8.20;99.90
13835;DHT22;6988;52.614;13.500;2023-05-16T23:41:45;8.20;99.90
13835;DHT22;6988;52.614;13.500;2023-05-16T23:46:37;8.20;99.90
13835;DHT22;6988;52.614;13.500;2023-05-16T23:51:29;8.10;99.90
13835;DHT22;6988;52.614;13.500;2023-05-16T23:56:21;8.10;99.90
